createdAt,value
2019-03-01T00:05:18.506Z,10.47
2019-03-01T00:10:33.459Z,10.32
2019-03-01T00:16:38.899Z,10.15
2019-03-01T00:22:11.749Z,9.97
2019-03-01T00:27:55.304Z,9.91
2019-03-01T00:33:23.393Z,9.96
2019-03-01T00:38:55.607Z,9.84
2019-03-01T00:44:24.718Z,9.80
2019-03-01T00:49:26.797Z,9.63
2019-03-01T00:54:28.874Z,9.72
2019-03-01T00:59:31.005Z,9.67
2019-03-01T01:04:33.226Z,9.58
2019-03-01T01:09:35.330Z,9.45
2019-03-01T01:14:37.471Z,9.60
2019-03-01T01:19:39.627Z,9.62
2019-03-01T01:24:41.700Z,9.52
2019-03-01T01:29:43.814Z,9.56
2019-03-01T01:34:45.936Z,9.53
2019-03-01T01:39:48.004Z,9.54
2019-03-01T01:44:50.061Z,9.53
2019-03-01T01:49:52.083Z,9.51
2019-03-01T01:54:54.126Z,9.42
2019-03-01T01:59:56.227Z,9.52
2019-03-01T02:04:58.388Z,9.50
2019-03-01T02:10:00.402Z,9.52
2019-03-01T02:15:02.940Z,9.42
2019-03-01T02:20:05.285Z,9.44
2019-03-01T02:25:08.620Z,9.40
2019-03-01T02:30:13.555Z,9.42
2019-03-01T02:35:25.769Z,9.46
2019-03-01T02:40:27.883Z,9.39
2019-03-01T02:45:30.007Z,9.45
2019-03-01T02:50:32.115Z,9.38
2019-03-01T02:55:34.409Z,9.28
2019-03-01T03:00:36.819Z,9.19
2019-03-01T03:05:55.933Z,9.24
2019-03-01T03:10:57.997Z,9.33
2019-03-01T03:16:00.598Z,9.28
2019-03-01T03:21:02.718Z,9.30
2019-03-01T03:26:04.784Z,9.25
2019-03-01T03:31:06.920Z,9.20
2019-03-01T03:36:08.981Z,9.13
2019-03-01T03:41:11.623Z,9.18
2019-03-01T03:46:13.726Z,9.10
2019-03-01T03:51:15.865Z,9.00
2019-03-01T03:56:18.127Z,8.94
2019-03-01T04:01:20.237Z,8.98
2019-03-01T04:06:22.283Z,8.87
2019-03-01T04:11:24.316Z,8.84
2019-03-01T04:16:26.793Z,8.78
2019-03-01T04:21:28.900Z,8.85
2019-03-01T04:26:31.071Z,8.76
2019-03-01T04:31:33.251Z,8.76
2019-03-01T04:36:35.332Z,8.87
2019-03-01T04:41:37.341Z,8.75
2019-03-01T04:46:39.346Z,8.75
2019-03-01T04:51:41.714Z,8.75
2019-03-01T04:56:43.824Z,8.79
2019-03-01T05:01:45.883Z,8.74
2019-03-01T05:06:47.961Z,8.81
2019-03-01T05:11:50.039Z,8.78
2019-03-01T05:16:52.164Z,8.77
2019-03-01T05:21:54.305Z,8.66
2019-03-01T05:26:56.412Z,8.73
2019-03-01T05:31:58.433Z,8.72
2019-03-01T05:37:00.516Z,8.70
2019-03-01T05:42:02.599Z,8.76
2019-03-01T05:47:04.684Z,8.73
2019-03-01T05:52:06.725Z,8.73
2019-03-01T05:57:09.194Z,8.68
2019-03-01T06:02:56.559Z,8.67
2019-03-01T06:08:37.597Z,8.56
2019-03-01T06:14:26.697Z,8.64
2019-03-01T06:19:50.184Z,8.62
2019-03-01T06:25:08.618Z,8.70
2019-03-01T06:30:32.761Z,8.67
2019-03-01T06:36:05.027Z,8.64
2019-03-01T06:42:19.642Z,8.61
2019-03-01T06:47:38.183Z,8.70
2019-03-01T06:52:40.762Z,8.66
2019-03-01T06:57:42.877Z,8.70
2019-03-01T07:02:45.783Z,8.72
2019-03-01T07:07:47.920Z,8.70
2019-03-01T07:12:50.059Z,8.79
2019-03-01T07:17:52.209Z,8.96
2019-03-01T07:22:54.354Z,8.77
2019-03-01T07:27:56.394Z,8.84
2019-03-01T07:32:58.557Z,8.86
2019-03-01T07:38:00.605Z,8.96
2019-03-01T07:43:03.908Z,8.99
2019-03-01T07:48:06.584Z,9.01
2019-03-01T07:53:08.683Z,9.17
2019-03-01T07:58:10.829Z,9.08
2019-03-01T08:03:15.120Z,9.09
2019-03-01T08:08:16.969Z,9.29
2019-03-01T08:13:19.367Z,9.18
2019-03-01T08:18:21.800Z,9.39
2019-03-01T08:23:24.022Z,9.52
2019-03-01T08:28:26.127Z,9.51
2019-03-01T08:33:28.180Z,9.49
2019-03-01T08:38:30.570Z,9.45
2019-03-01T08:43:32.683Z,9.41
2019-03-01T08:48:34.897Z,9.46
2019-03-01T08:53:37.248Z,9.24
2019-03-01T08:58:41.574Z,9.47
2019-03-01T09:03:50.342Z,9.56
2019-03-01T09:08:52.685Z,9.64
2019-03-01T09:13:54.813Z,9.55
2019-03-01T09:18:57.048Z,9.58
2019-03-01T09:23:59.103Z,9.55
2019-03-01T09:29:01.236Z,9.66
2019-03-01T09:34:03.451Z,9.80
2019-03-01T09:39:08.387Z,9.91
2019-03-01T09:44:10.506Z,9.85
2019-03-01T09:49:12.558Z,9.86
2019-03-01T09:54:14.669Z,9.78
2019-03-01T09:59:16.669Z,9.71
2019-03-01T10:04:18.776Z,9.72
2019-03-01T10:09:21.444Z,9.77
2019-03-01T10:14:26.469Z,9.85
2019-03-01T10:19:28.597Z,9.88
2019-03-01T10:24:30.646Z,10.10
2019-03-01T10:29:32.754Z,10.37
2019-03-01T10:34:34.887Z,10.82
2019-03-01T10:39:37.318Z,10.75
2019-03-01T10:44:39.426Z,11.15
2019-03-01T10:49:41.619Z,11.16
2019-03-01T10:54:43.688Z,10.71
2019-03-01T10:59:45.746Z,10.68
2019-03-01T11:04:47.839Z,10.62
2019-03-01T11:09:49.882Z,10.54
2019-03-01T11:14:51.961Z,10.76
2019-03-01T11:19:54.053Z,11.00
2019-03-01T11:24:56.156Z,11.15
2019-03-01T11:29:58.240Z,11.42
2019-03-01T11:35:00.588Z,11.40
2019-03-01T11:40:03.677Z,11.71
2019-03-01T11:45:06.984Z,11.71
2019-03-01T11:50:12.004Z,12.08
2019-03-01T11:55:14.162Z,11.94
2019-03-01T12:00:18.166Z,12.42
2019-03-01T12:05:20.638Z,11.87
2019-03-01T12:10:24.948Z,11.69
2019-03-01T12:15:39.712Z,11.05
2019-03-01T12:20:33.171Z,10.83
2019-03-01T12:25:35.215Z,10.74
2019-03-01T12:30:38.084Z,10.80
2019-03-01T12:35:40.176Z,10.82
2019-03-01T12:40:42.567Z,10.70
2019-03-01T12:45:44.809Z,10.74
2019-03-01T12:50:46.928Z,10.62
2019-03-01T12:55:49.752Z,10.48
2019-03-01T13:00:52.102Z,10.43
2019-03-01T13:05:54.483Z,10.60
2019-03-01T13:10:56.639Z,10.85
2019-03-01T13:16:04.394Z,10.95
2019-03-01T13:21:09.570Z,10.85
2019-03-01T13:26:10.812Z,10.85
2019-03-01T13:31:12.882Z,11.00
2019-03-01T13:36:14.927Z,11.26
2019-03-01T13:41:16.978Z,11.34
2019-03-01T13:46:19.050Z,11.50
2019-03-01T13:51:21.160Z,11.60
2019-03-01T13:56:23.253Z,11.42
2019-03-01T14:01:27.075Z,11.32
2019-03-01T14:06:29.379Z,11.29
2019-03-01T14:11:31.639Z,11.17
2019-03-01T14:16:33.727Z,11.26
2019-03-01T14:21:35.838Z,11.19
2019-03-01T14:26:37.972Z,11.10
2019-03-01T14:31:43.010Z,10.74
2019-03-01T14:36:44.021Z,10.82
2019-03-01T14:41:46.099Z,10.75
2019-03-01T14:46:48.153Z,10.83
2019-03-01T14:51:50.205Z,10.71
2019-03-01T14:56:57.299Z,10.69
2019-03-01T15:02:40.767Z,10.84
2019-03-01T15:07:42.874Z,10.86
2019-03-01T15:12:44.978Z,10.66
2019-03-01T15:17:47.064Z,10.50
2019-03-01T15:22:49.663Z,10.44
2019-03-01T15:27:52.123Z,10.49
2019-03-01T15:32:54.299Z,10.45
2019-03-01T15:37:56.411Z,10.38
2019-03-01T15:42:58.632Z,10.38
2019-03-01T15:48:01.986Z,10.53
2019-03-01T15:53:04.781Z,10.41
2019-03-01T15:58:06.864Z,10.25
2019-03-01T16:03:09.106Z,9.90
2019-03-01T16:08:11.145Z,9.92
2019-03-01T16:13:13.364Z,9.83
2019-03-01T16:18:15.469Z,9.80
2019-03-01T16:23:17.603Z,9.77
2019-03-01T16:28:19.968Z,9.80
2019-03-01T16:33:22.510Z,9.62
2019-03-01T16:38:25.958Z,9.34
2019-03-01T16:43:28.576Z,9.08
2019-03-01T16:48:32.993Z,9.03
2019-03-01T16:53:36.721Z,9.03
2019-03-01T16:58:39.065Z,8.97
2019-03-01T17:03:41.140Z,8.92
2019-03-01T17:08:43.226Z,8.89
2019-03-01T17:13:45.583Z,8.89
2019-03-01T17:18:48.576Z,8.91
2019-03-01T17:23:54.689Z,8.90
2019-03-01T17:28:59.675Z,8.96
2019-03-01T17:34:00.846Z,8.97
2019-03-01T17:39:05.362Z,9.00
2019-03-01T17:44:08.671Z,8.88
2019-03-01T17:49:11.764Z,8.86
2019-03-01T17:54:13.879Z,8.91
2019-03-01T17:59:16.346Z,8.84
2019-03-01T18:04:18.423Z,8.77
2019-03-01T18:09:20.490Z,8.75
2019-03-01T18:14:22.835Z,8.76
2019-03-01T18:19:26.630Z,8.73
2019-03-01T18:24:28.955Z,8.80
2019-03-01T18:29:31.621Z,8.77
2019-03-01T18:34:36.366Z,8.78
2019-03-01T18:39:38.228Z,8.76
2019-03-01T18:44:41.688Z,8.76
2019-03-01T18:49:43.821Z,8.76
2019-03-01T18:54:45.881Z,8.77
2019-03-01T18:59:47.917Z,8.84
2019-03-01T19:04:50.527Z,8.80
2019-03-01T19:09:53.234Z,8.68
2019-03-01T19:14:55.376Z,8.72
2019-03-01T19:19:57.501Z,8.75
2019-03-01T19:24:59.911Z,8.75
2019-03-01T19:30:02.029Z,8.67
2019-03-01T19:35:04.281Z,8.64
2019-03-01T19:40:10.862Z,8.63
2019-03-01T19:45:14.462Z,8.55
2019-03-01T19:50:17.477Z,8.45
2019-03-01T19:55:19.499Z,8.43
2019-03-01T20:00:22.813Z,8.30
2019-03-01T20:05:27.813Z,8.20
2019-03-01T20:10:29.485Z,8.08
2019-03-01T20:15:31.561Z,8.10
2019-03-01T20:20:34.381Z,8.06
2019-03-01T20:25:36.593Z,7.94
2019-03-01T20:30:38.905Z,7.76
2019-03-01T20:35:40.982Z,7.67
2019-03-01T20:40:43.052Z,7.68
2019-03-01T20:45:45.154Z,7.51
2019-03-01T20:50:47.704Z,7.50
2019-03-01T20:55:51.241Z,7.64
2019-03-01T21:00:53.319Z,7.48
2019-03-01T21:05:55.414Z,7.61
2019-03-01T21:10:57.466Z,7.65
2019-03-01T21:15:59.565Z,7.51
2019-03-01T21:21:01.659Z,7.56
2019-03-01T21:26:03.745Z,7.48
2019-03-01T21:31:05.876Z,7.60
2019-03-01T21:36:08.001Z,7.56
2019-03-01T21:41:11.137Z,7.53
2019-03-01T21:46:13.237Z,7.46
2019-03-01T21:51:18.480Z,7.46
2019-03-01T21:56:19.471Z,7.43
2019-03-01T22:01:21.513Z,7.48
2019-03-01T22:06:23.960Z,7.42
2019-03-01T22:11:26.836Z,7.34
2019-03-01T22:16:28.924Z,7.37
2019-03-01T22:21:31.322Z,7.40
2019-03-01T22:26:33.533Z,7.34
2019-03-01T22:31:36.268Z,7.31
2019-03-01T22:36:38.370Z,7.31
2019-03-01T22:41:40.865Z,7.28
2019-03-01T22:46:43.270Z,7.30
2019-03-01T22:51:45.444Z,7.41
2019-03-01T22:56:48.416Z,7.34
2019-03-01T23:01:54.640Z,7.36
2019-03-01T23:06:57.047Z,7.25
2019-03-01T23:11:59.383Z,7.29
2019-03-01T23:17:01.480Z,7.24
2019-03-01T23:22:03.598Z,7.21
2019-03-01T23:27:05.695Z,7.14
2019-03-01T23:32:07.789Z,7.10
2019-03-01T23:37:09.856Z,7.11
2019-03-01T23:42:12.051Z,7.08
2019-03-01T23:47:14.104Z,7.12
2019-03-01T23:52:16.169Z,7.15
2019-03-01T23:57:18.279Z,7.10
